createdAt,value
2017-03-21T00:00:08.020Z,20.3
2017-03-21T00:01:18.331Z,20.33
2017-03-21T00:02:28.948Z,20.33
2017-03-21T00:03:39.277Z,20.34
2017-03-21T00:04:49.278Z,20.33
2017-03-21T00:05:59.590Z,20.33
2017-03-21T00:07:09.589Z,20.21
2017-03-21T00:08:20.150Z,20.24
2017-03-21T00:09:30.451Z,20.3
2017-03-21T00:10:40.755Z,20.26
2017-03-21T00:11:51.067Z,20.22
2017-03-21T00:13:01.367Z,20.3
2017-03-21T00:14:11.924Z,20.24
2017-03-21T00:15:22.228Z,20.22
2017-03-21T00:16:32.529Z,20.19
2017-03-21T00:17:42.837Z,20.26
2017-03-21T00:18:53.149Z,20.19
2017-03-21T00:20:03.698Z,20.33
2017-03-21T00:21:14.903Z,20.3
2017-03-21T00:22:25.210Z,20.26
2017-03-21T00:23:35.521Z,20.33
2017-03-21T00:24:45.515Z,20.27
2017-03-21T00:25:56.067Z,20.3
2017-03-21T00:27:06.355Z,20.32
2017-03-21T00:28:16.359Z,20.26
2017-03-21T00:29:26.660Z,20.19
2017-03-21T00:30:36.958Z,20.32
2017-03-21T00:31:47.205Z,20.22
2017-03-21T00:32:57.511Z,20.27
2017-03-21T00:34:07.856Z,20.19
2017-03-21T00:35:17.883Z,20.18
2017-03-21T00:36:28.189Z,20.21
2017-03-21T00:37:38.742Z,20.22
2017-03-21T00:38:49.060Z,20.27
2017-03-21T00:39:59.367Z,20.21
2017-03-21T00:41:09.670Z,20.21
2017-03-21T00:42:19.978Z,20.32
2017-03-21T00:43:30.539Z,20.21
2017-03-21T00:44:40.852Z,20.27
2017-03-21T00:45:50.845Z,20.22
2017-03-21T00:47:01.149Z,20.24
2017-03-21T00:48:11.446Z,20.19
2017-03-21T00:49:22.000Z,20.22
2017-03-21T00:50:32.321Z,20.21
2017-03-21T00:51:41.997Z,20.22
2017-03-21T00:52:52.324Z,20.26
2017-03-21T00:54:02.635Z,20.22
2017-03-21T00:55:13.180Z,20.24
2017-03-21T00:56:23.472Z,20.15
2017-03-21T00:57:33.761Z,20.22
2017-03-21T00:58:43.748Z,20.22
2017-03-21T00:59:54.104Z,20.22
2017-03-21T01:01:04.694Z,20.21
2017-03-21T01:02:14.999Z,20.21
2017-03-21T01:03:24.993Z,20.26
2017-03-21T01:04:35.310Z,20.22
2017-03-21T01:05:45.300Z,20.22
2017-03-21T01:06:55.914Z,20.22
2017-03-21T01:08:06.225Z,20.21
2017-03-21T01:09:16.538Z,20.24
2017-03-21T01:10:26.528Z,20.26
2017-03-21T01:11:36.819Z,20.27
2017-03-21T01:12:47.063Z,20.19
2017-03-21T01:13:57.370Z,20.21
2017-03-21T01:15:07.667Z,20.26
2017-03-21T01:16:17.988Z,20.18
2017-03-21T01:17:28.278Z,20.27
2017-03-21T01:18:38.881Z,20.22
2017-03-21T01:19:49.194Z,20.19
2017-03-21T01:20:59.190Z,20.21
2017-03-21T01:22:09.495Z,20.24
2017-03-21T01:23:19.796Z,20.26
2017-03-21T01:24:30.361Z,20.19
2017-03-21T01:25:40.351Z,20.22
2017-03-21T01:26:50.349Z,20.21
2017-03-21T01:28:00.662Z,20.21
2017-03-21T01:29:10.986Z,20.24
2017-03-21T01:30:21.230Z,20.26
2017-03-21T01:31:31.213Z,20.22
2017-03-21T01:32:41.513Z,20.3
2017-03-21T01:33:51.821Z,20.21
2017-03-21T01:35:02.125Z,20.21
2017-03-21T01:36:12.670Z,20.18
2017-03-21T01:37:22.979Z,20.19
2017-03-21T01:38:33.274Z,20.21
2017-03-21T01:39:43.576Z,20.22
2017-03-21T01:40:53.882Z,20.21
2017-03-21T01:42:04.459Z,20.19
2017-03-21T01:43:14.452Z,20.24
2017-03-21T01:44:24.765Z,20.15
2017-03-21T01:45:34.759Z,20.27
2017-03-21T01:46:45.273Z,20.12
2017-03-21T01:47:55.878Z,20.17
2017-03-21T01:49:06.218Z,20.26
2017-03-21T01:50:16.523Z,20.19
2017-03-21T01:51:26.842Z,20.14
2017-03-21T01:52:36.866Z,20.18
2017-03-21T01:53:47.440Z,20.26
2017-03-21T01:54:57.741Z,20.24
2017-03-21T01:56:08.041Z,20.22
2017-03-21T01:57:18.630Z,20.19
2017-03-21T01:58:28.932Z,20.19
2017-03-21T01:59:39.491Z,20.22
2017-03-21T02:00:49.898Z,20.19
2017-03-21T02:02:00.198Z,20.27
2017-03-21T02:03:10.525Z,20.24
2017-03-21T02:04:20.833Z,20.19
2017-03-21T02:05:31.383Z,20.17
2017-03-21T02:06:41.366Z,20.18
2017-03-21T02:07:51.674Z,20.12
2017-03-21T02:09:01.364Z,20.19
2017-03-21T02:10:11.671Z,20.18
2017-03-21T02:11:22.228Z,20.17
2017-03-21T02:12:32.525Z,20.19
2017-03-21T02:13:42.837Z,20.12
2017-03-21T02:14:53.163Z,20.21
2017-03-21T02:16:03.161Z,20.1
2017-03-21T02:17:13.716Z,20.12
2017-03-21T02:18:24.033Z,20.14
2017-03-21T02:19:34.033Z,20.15
2017-03-21T02:20:44.333Z,20.12
2017-03-21T02:21:54.640Z,20.12
2017-03-21T02:23:05.199Z,20.14
2017-03-21T02:24:15.505Z,20.14
2017-03-21T02:25:25.817Z,20.17
2017-03-21T02:26:36.112Z,20.15
2017-03-21T02:27:46.439Z,20.14
2017-03-21T02:28:57.090Z,20.12
2017-03-21T02:30:07.081Z,20.12
2017-03-21T02:31:17.069Z,20.18
2017-03-21T02:32:26.750Z,20.15
2017-03-21T02:33:36.756Z,20.14
2017-03-21T02:34:47.302Z,20.11
2017-03-21T02:35:57.297Z,20.12
2017-03-21T02:37:07.285Z,20.11
2017-03-21T02:38:17.581Z,20.15
2017-03-21T02:39:27.895Z,20.14
2017-03-21T02:40:38.494Z,20.12
2017-03-21T02:41:48.179Z,20.11
2017-03-21T02:42:58.177Z,20.21
2017-03-21T02:44:08.589Z,20.12
2017-03-21T02:45:18.582Z,20.12
2017-03-21T02:46:28.869Z,20.18
2017-03-21T02:47:39.167Z,20.15
2017-03-21T02:48:49.498Z,20.14
2017-03-21T02:49:59.815Z,20.12
2017-03-21T02:51:10.119Z,20.17
2017-03-21T02:52:20.357Z,20.08
2017-03-21T02:53:30.653Z,20.17
2017-03-21T02:54:40.662Z,20.14
2017-03-21T02:55:50.894Z,20.15
2017-03-21T02:57:01.203Z,20.1
2017-03-21T02:58:11.757Z,20.12
2017-03-21T02:59:22.061Z,20.12
2017-03-21T03:00:32.371Z,20.08
2017-03-21T03:01:42.670Z,20.17
2017-03-21T03:02:52.983Z,20.1
2017-03-21T03:04:03.643Z,20.14
2017-03-21T03:05:13.946Z,20.19
2017-03-21T03:06:24.243Z,20.11
2017-03-21T03:07:34.224Z,20.21
2017-03-21T03:08:44.218Z,20.15
2017-03-21T03:09:54.775Z,20.11
2017-03-21T03:11:05.076Z,20.11
2017-03-21T03:12:15.373Z,20.14
2017-03-21T03:13:25.674Z,20.1
2017-03-21T03:14:35.975Z,20.12
2017-03-21T03:15:46.218Z,20.14
2017-03-21T03:16:56.202Z,20.12
2017-03-21T03:18:06.195Z,20.19
2017-03-21T03:19:16.516Z,20.08
2017-03-21T03:20:26.819Z,20.18
2017-03-21T03:21:37.360Z,20.19
2017-03-21T03:22:47.666Z,20.1
2017-03-21T03:23:58.020Z,20.18
2017-03-21T03:25:08.018Z,20.21
2017-03-21T03:26:18.337Z,20.11
2017-03-21T03:27:28.928Z,20.1
2017-03-21T03:28:39.236Z,20.12
2017-03-21T03:29:49.542Z,20.15
2017-03-21T03:30:59.533Z,20.08
2017-03-21T03:32:09.820Z,20.1
2017-03-21T03:33:20.365Z,20.1
2017-03-21T03:34:30.673Z,20.11
2017-03-21T03:35:40.970Z,20.21
2017-03-21T03:36:50.951Z,20.14
2017-03-21T03:38:01.255Z,20.12
2017-03-21T03:39:11.866Z,20.27
2017-03-21T03:40:22.170Z,20.17
2017-03-21T03:41:32.458Z,20.15
2017-03-21T03:42:42.772Z,20.18
2017-03-21T03:43:52.790Z,20.11
2017-03-21T03:45:03.405Z,20.12
2017-03-21T03:46:13.719Z,20.26
2017-03-21T03:47:23.724Z,20.11
2017-03-21T03:48:34.030Z,20.15
2017-03-21T03:49:44.333Z,20.17
2017-03-21T03:50:54.624Z,20.1
2017-03-21T03:52:04.602Z,20.11
2017-03-21T03:53:14.906Z,20.11
2017-03-21T03:54:25.208Z,20.17
2017-03-21T03:55:35.522Z,20.17
2017-03-21T03:56:46.067Z,20.12
2017-03-21T03:57:56.370Z,20.15
2017-03-21T03:59:06.711Z,20.22
2017-03-21T04:00:16.699Z,20.11
2017-03-21T04:01:26.999Z,20.19
2017-03-21T04:02:37.294Z,20.14
2017-03-21T04:03:47.601Z,20.19
2017-03-21T04:04:56.992Z,20.22
2017-03-21T04:06:07.296Z,20.19
2017-03-21T04:07:17.287Z,20.14
2017-03-21T04:08:27.594Z,20.22
2017-03-21T04:09:37.578Z,20.15
2017-03-21T04:10:47.558Z,20.12
2017-03-21T04:11:57.862Z,20.21
2017-03-21T04:13:08.173Z,20.19
2017-03-21T04:14:18.737Z,20.14
2017-03-21T04:15:28.733Z,20.12
2017-03-21T04:16:39.051Z,20.17
2017-03-21T04:17:49.360Z,20.15
2017-03-21T04:18:59.671Z,20.27
2017-03-21T04:20:09.955Z,20.14
2017-03-21T04:21:20.252Z,20.21
2017-03-21T04:22:30.585Z,20.11
2017-03-21T04:23:40.893Z,20.11
2017-03-21T04:24:50.893Z,20.1
2017-03-21T04:26:01.489Z,20.11
2017-03-21T04:27:11.789Z,20.18
2017-03-21T04:28:21.783Z,20.14
2017-03-21T04:29:31.469Z,20.12
2017-03-21T04:30:41.450Z,20.19
2017-03-21T04:31:51.984Z,20.21
2017-03-21T04:33:02.298Z,20.22
2017-03-21T04:34:12.621Z,20.11
2017-03-21T04:35:22.924Z,20.17
2017-03-21T04:36:33.220Z,20.15
2017-03-21T04:37:43.831Z,20.19
2017-03-21T04:38:54.148Z,20.18
2017-03-21T04:40:04.461Z,20.19
2017-03-21T04:41:14.756Z,20.14
2017-03-21T04:42:25.056Z,20.22
2017-03-21T04:43:35.674Z,20.14
2017-03-21T04:44:45.671Z,20.18
2017-03-21T04:45:55.660Z,20.19
2017-03-21T04:47:05.949Z,20.27
2017-03-21T04:48:16.248Z,20.14
2017-03-21T04:49:26.852Z,20.21
2017-03-21T04:50:37.156Z,20.18
2017-03-21T04:51:47.146Z,20.19
2017-03-21T04:52:57.134Z,20.17
2017-03-21T04:54:07.443Z,20.24
2017-03-21T04:55:18.006Z,20.18
2017-03-21T04:56:28.295Z,20.17
2017-03-21T04:57:38.596Z,20.26
2017-03-21T04:58:48.605Z,20.18
2017-03-21T04:59:58.924Z,20.14
2017-03-21T05:01:09.472Z,20.21
2017-03-21T05:02:19.451Z,20.22
2017-03-21T05:03:29.441Z,20.18
2017-03-21T05:04:39.760Z,20.17
2017-03-21T05:05:50.067Z,20.18
2017-03-21T05:07:00.656Z,20.19
2017-03-21T05:08:10.964Z,20.22
2017-03-21T05:09:20.960Z,20.29
2017-03-21T05:10:31.261Z,20.29
2017-03-21T05:11:40.943Z,20.24
2017-03-21T05:12:51.232Z,20.24
2017-03-21T05:14:01.539Z,20.21
2017-03-21T05:15:11.846Z,20.32
2017-03-21T05:16:22.144Z,20.21
2017-03-21T05:17:32.444Z,20.24
2017-03-21T05:18:42.683Z,20.22
2017-03-21T05:19:52.999Z,20.21
2017-03-21T05:21:03.300Z,20.22
2017-03-21T05:22:13.588Z,20.24
2017-03-21T05:23:23.585Z,20.21
2017-03-21T05:24:33.866Z,20.21
2017-03-21T05:25:44.161Z,20.21
2017-03-21T05:26:53.878Z,20.29
2017-03-21T05:28:04.176Z,20.32
2017-03-21T05:29:14.532Z,20.27
2017-03-21T05:30:25.090Z,20.33
2017-03-21T05:31:35.388Z,20.32
2017-03-21T05:32:45.683Z,20.32
2017-03-21T05:33:55.678Z,20.3
2017-03-21T05:35:05.978Z,20.33
2017-03-21T05:36:16.220Z,20.22
2017-03-21T05:37:26.525Z,20.27
2017-03-21T05:38:36.522Z,20.36
2017-03-21T05:39:46.826Z,20.3
2017-03-21T05:40:56.519Z,20.29
2017-03-21T05:42:06.803Z,20.42
2017-03-21T05:43:16.794Z,20.32
2017-03-21T05:44:27.097Z,20.3
2017-03-21T05:45:37.403Z,20.39
2017-03-21T05:46:47.084Z,20.29
2017-03-21T05:47:57.325Z,20.37
2017-03-21T05:49:07.645Z,20.46
2017-03-21T05:50:17.647Z,20.44
2017-03-21T05:51:27.629Z,20.4
2017-03-21T05:52:37.937Z,20.34
2017-03-21T05:53:48.493Z,20.4
2017-03-21T05:54:58.793Z,20.42
2017-03-21T05:56:09.107Z,20.36
2017-03-21T05:57:19.089Z,20.39
2017-03-21T05:58:29.412Z,20.33
2017-03-21T05:59:39.958Z,20.42
2017-03-21T06:00:49.942Z,20.3
2017-03-21T06:02:00.243Z,20.33
2017-03-21T06:03:10.555Z,20.37
2017-03-21T06:04:20.557Z,20.3
2017-03-21T06:05:31.189Z,20.44
2017-03-21T06:06:41.190Z,20.37
2017-03-21T06:07:51.526Z,20.44
2017-03-21T06:09:01.825Z,20.4
2017-03-21T06:10:11.830Z,20.46
2017-03-21T06:11:22.083Z,20.44
2017-03-21T06:12:32.403Z,20.46
2017-03-21T06:13:42.705Z,20.46
2017-03-21T06:14:53.069Z,20.4
2017-03-21T06:16:03.066Z,20.49
2017-03-21T06:17:13.634Z,20.36
2017-03-21T06:18:23.935Z,20.42
2017-03-21T06:19:34.253Z,20.48
2017-03-21T06:20:44.564Z,20.42
2017-03-21T06:21:54.860Z,20.44
2017-03-21T06:23:05.098Z,20.39
2017-03-21T06:24:15.383Z,20.48
2017-03-21T06:25:25.369Z,20.58
2017-03-21T06:26:35.348Z,20.59
2017-03-21T06:27:45.043Z,20.5
2017-03-21T06:28:55.292Z,20.53
2017-03-21T06:30:05.590Z,20.56
2017-03-21T06:31:15.895Z,20.55
2017-03-21T06:32:26.209Z,20.56
2017-03-21T06:33:36.517Z,20.59
2017-03-21T06:34:47.131Z,20.53
2017-03-21T06:35:57.126Z,20.6
2017-03-21T06:37:07.414Z,20.58
2017-03-21T06:38:17.718Z,20.6
2017-03-21T06:39:28.032Z,20.59
2017-03-21T06:40:38.624Z,20.64
2017-03-21T06:41:48.934Z,20.71
2017-03-21T06:42:58.913Z,20.66
2017-03-21T06:44:08.913Z,20.66
2017-03-21T06:45:19.221Z,20.71
2017-03-21T06:46:29.782Z,20.68
2017-03-21T06:47:40.082Z,20.74
2017-03-21T06:48:50.400Z,20.77
2017-03-21T06:50:00.714Z,20.73
2017-03-21T06:51:10.410Z,20.73
2017-03-21T06:52:20.663Z,20.78
2017-03-21T06:53:30.976Z,20.73
2017-03-21T06:54:41.287Z,20.82
2017-03-21T06:55:51.586Z,20.8
2017-03-21T06:57:01.891Z,20.75
2017-03-21T06:58:12.451Z,20.78
2017-03-21T06:59:22.765Z,20.77
2017-03-21T07:00:33.072Z,20.74
2017-03-21T07:01:43.376Z,20.7
2017-03-21T07:02:53.747Z,20.75
2017-03-21T07:04:04.336Z,20.78
2017-03-21T07:05:14.694Z,20.78
2017-03-21T07:06:24.679Z,20.78
2017-03-21T07:07:35.005Z,20.73
2017-03-21T07:08:45.359Z,20.77
2017-03-21T07:09:55.974Z,20.73
2017-03-21T07:11:05.990Z,20.75
2017-03-21T07:12:16.319Z,20.73
2017-03-21T07:13:26.633Z,20.8
2017-03-21T07:14:36.982Z,20.74
2017-03-21T07:15:47.270Z,20.8
2017-03-21T07:16:56.966Z,20.75
2017-03-21T07:18:07.328Z,20.71
2017-03-21T07:19:17.942Z,20.73
2017-03-21T07:20:28.266Z,20.74
2017-03-21T07:21:38.824Z,20.71
2017-03-21T07:22:48.889Z,20.71
2017-03-21T07:23:59.229Z,20.67
2017-03-21T07:25:09.286Z,20.75
2017-03-21T07:26:19.271Z,20.67
2017-03-21T07:27:29.390Z,20.66
2017-03-21T07:28:39.373Z,20.75
2017-03-21T07:29:49.382Z,20.74
2017-03-21T07:30:59.414Z,20.67
2017-03-21T07:32:09.735Z,20.63
2017-03-21T07:33:20.335Z,20.64
2017-03-21T07:34:30.647Z,20.71
2017-03-21T07:35:40.963Z,20.71
2017-03-21T07:36:51.277Z,20.68
2017-03-21T07:38:01.593Z,20.71
2017-03-21T07:39:12.205Z,20.66
2017-03-21T07:40:22.514Z,20.63
2017-03-21T07:41:32.508Z,20.67
2017-03-21T07:42:42.820Z,20.68
2017-03-21T07:43:52.823Z,20.66
2017-03-21T07:45:03.167Z,20.66
2017-03-21T07:46:13.497Z,20.63
2017-03-21T07:47:23.827Z,20.68
2017-03-21T07:48:33.851Z,20.63
2017-03-21T07:49:44.172Z,20.64
2017-03-21T07:50:54.472Z,20.7
2017-03-21T07:52:04.787Z,20.73
2017-03-21T07:53:14.486Z,20.67
2017-03-21T07:54:24.815Z,20.8
2017-03-21T07:55:35.141Z,20.75
2017-03-21T07:56:45.446Z,20.77
2017-03-21T07:57:55.791Z,20.8
2017-03-21T07:59:06.323Z,20.78
2017-03-21T08:00:16.652Z,20.73
2017-03-21T08:01:27.011Z,20.77
2017-03-21T08:02:37.635Z,20.74
2017-03-21T08:03:47.962Z,20.77
2017-03-21T08:04:58.282Z,20.78
2017-03-21T08:06:08.606Z,20.88
2017-03-21T08:07:18.606Z,20.82
2017-03-21T08:08:28.550Z,20.92
2017-03-21T08:09:38.886Z,20.89
2017-03-21T08:10:49.243Z,20.9
2017-03-21T08:11:59.612Z,20.89
2017-03-21T08:13:09.941Z,20.86
2017-03-21T08:14:20.516Z,20.83
2017-03-21T08:15:30.503Z,20.89
2017-03-21T08:16:40.828Z,20.88
2017-03-21T08:17:51.142Z,20.92
2017-03-21T08:19:01.685Z,20.9
2017-03-21T08:20:12.285Z,20.88
2017-03-21T08:21:22.358Z,20.93
2017-03-21T08:22:32.703Z,20.96
2017-03-21T08:23:43.011Z,20.95
2017-03-21T08:24:53.050Z,20.96
2017-03-21T08:26:03.012Z,21.04
2017-03-21T08:27:13.388Z,20.98
2017-03-21T08:28:23.738Z,21.03
2017-03-21T08:29:34.064Z,21.05
2017-03-21T08:30:44.066Z,21.04
2017-03-21T08:31:54.692Z,21.08
2017-03-21T08:33:05.053Z,21.13
2017-03-21T08:34:15.375Z,21.08
2017-03-21T08:35:25.718Z,21.05
2017-03-21T08:36:36.086Z,21.1
2017-03-21T08:37:46.727Z,21.17
2017-03-21T08:38:57.043Z,21.11
2017-03-21T08:40:07.383Z,21.11
2017-03-21T08:41:17.776Z,21.14
2017-03-21T08:42:28.178Z,21.11
2017-03-21T08:43:38.465Z,21.15
2017-03-21T08:44:48.458Z,21.14
2017-03-21T08:45:58.776Z,21.14
2017-03-21T08:47:09.118Z,21.17
2017-03-21T08:48:19.451Z,21.14
2017-03-21T08:49:30.225Z,21.11
2017-03-21T08:50:40.566Z,21.15
2017-03-21T08:51:50.902Z,21.23
2017-03-21T08:53:01.250Z,21.23
2017-03-21T08:54:11.587Z,21.28
2017-03-21T08:55:22.189Z,21.25
2017-03-21T08:56:32.521Z,21.25
2017-03-21T08:57:42.847Z,21.25
2017-03-21T08:58:52.851Z,21.33
2017-03-21T09:00:03.390Z,21.26
2017-03-21T09:01:14.022Z,21.3
2017-03-21T09:02:23.711Z,21.35
2017-03-21T09:03:34.043Z,21.3
2017-03-21T09:04:44.346Z,21.28
2017-03-21T09:05:54.646Z,21.32
2017-03-21T09:07:05.250Z,21.35
2017-03-21T09:08:14.938Z,21.41
2017-03-21T09:09:25.273Z,21.43
2017-03-21T09:10:35.290Z,21.44
2017-03-21T09:11:45.593Z,21.43
2017-03-21T09:12:56.176Z,21.41
2017-03-21T09:14:06.493Z,21.41
2017-03-21T09:15:16.797Z,21.41
2017-03-21T09:16:27.137Z,21.44
2017-03-21T09:17:37.139Z,21.41
2017-03-21T09:18:47.408Z,21.43
2017-03-21T09:19:57.729Z,21.44
2017-03-21T09:21:08.071Z,21.41
2017-03-21T09:22:18.419Z,21.33
2017-03-21T09:23:28.739Z,21.4
2017-03-21T09:24:39.050Z,21.33
2017-03-21T09:25:49.373Z,21.3
2017-03-21T09:26:59.393Z,21.29
2017-03-21T09:28:09.751Z,21.28
2017-03-21T09:29:19.762Z,21.33
2017-03-21T09:30:30.384Z,21.29
2017-03-21T09:31:40.695Z,21.32
2017-03-21T09:32:51.013Z,21.33
2017-03-21T09:34:01.321Z,21.29
2017-03-21T09:35:11.646Z,21.37
2017-03-21T09:36:21.902Z,21.37
2017-03-21T09:37:31.910Z,21.44
2017-03-21T09:38:42.157Z,21.37
2017-03-21T09:39:52.502Z,21.4
2017-03-21T09:41:02.842Z,21.44
2017-03-21T09:42:13.404Z,21.37
2017-03-21T09:43:23.728Z,21.43
2017-03-21T09:44:33.993Z,21.41
2017-03-21T09:45:44.341Z,21.43
2017-03-21T09:46:54.669Z,21.47
2017-03-21T09:48:05.225Z,21.5
2017-03-21T09:49:15.254Z,21.51
2017-03-21T09:50:25.632Z,21.44
2017-03-21T09:51:35.945Z,21.47
2017-03-21T09:52:46.249Z,21.4
2017-03-21T09:53:56.823Z,21.43
2017-03-21T09:55:06.822Z,21.41
2017-03-21T09:56:16.497Z,21.43
2017-03-21T09:57:26.807Z,21.43
2017-03-21T09:58:36.809Z,21.45
2017-03-21T09:59:47.116Z,21.43
2017-03-21T10:00:57.420Z,21.35
2017-03-21T10:02:07.731Z,21.5
2017-03-21T10:03:18.092Z,21.47
2017-03-21T10:04:28.413Z,21.45
2017-03-21T10:05:38.718Z,21.54
2017-03-21T10:06:48.723Z,21.51
2017-03-21T10:07:58.745Z,21.48
2017-03-21T10:09:08.749Z,21.47
2017-03-21T10:10:19.084Z,21.56
2017-03-21T10:11:29.379Z,21.56
2017-03-21T10:12:39.706Z,21.56
2017-03-21T10:13:50.153Z,21.58
2017-03-21T10:15:00.518Z,21.45
2017-03-21T10:16:10.841Z,21.44
2017-03-21T10:17:21.379Z,21.4
2017-03-21T10:18:31.718Z,21.51
2017-03-21T10:19:42.051Z,21.54
2017-03-21T10:20:52.365Z,21.47
2017-03-21T10:22:02.367Z,21.5
2017-03-21T10:23:12.630Z,21.45
2017-03-21T10:24:22.627Z,21.6
2017-03-21T10:25:32.617Z,21.53
2017-03-21T10:26:42.911Z,21.47
2017-03-21T10:27:53.232Z,21.54
2017-03-21T10:29:03.814Z,21.45
2017-03-21T10:30:13.811Z,21.48
2017-03-21T10:31:24.143Z,21.51
2017-03-21T10:32:34.145Z,21.44
2017-03-21T10:33:44.143Z,21.48
2017-03-21T10:34:54.710Z,21.48
2017-03-21T10:36:05.036Z,21.41
2017-03-21T10:37:15.077Z,21.43
2017-03-21T10:38:25.084Z,21.44
2017-03-21T10:39:35.085Z,21.41
2017-03-21T10:40:45.698Z,21.43
2017-03-21T10:41:56.006Z,21.43
2017-03-21T10:43:06.309Z,21.38
2017-03-21T10:44:16.629Z,21.43
2017-03-21T10:45:26.627Z,21.43
2017-03-21T10:46:37.237Z,21.43
2017-03-21T10:47:47.237Z,21.38
2017-03-21T10:48:57.219Z,21.43
2017-03-21T10:50:07.202Z,21.5
2017-03-21T10:51:17.207Z,21.45
2017-03-21T10:52:27.841Z,21.5
2017-03-21T10:53:38.144Z,21.45
2017-03-21T10:54:48.468Z,21.47
2017-03-21T10:55:58.503Z,21.4
2017-03-21T10:57:08.837Z,21.44
2017-03-21T10:58:19.408Z,21.37
2017-03-21T10:59:29.734Z,21.35
2017-03-21T11:00:40.061Z,21.4
2017-03-21T11:01:50.126Z,21.44
2017-03-21T11:03:00.447Z,21.43
2017-03-21T11:04:11.011Z,21.44
2017-03-21T11:05:21.337Z,21.47
2017-03-21T11:06:31.679Z,21.35
2017-03-21T11:07:41.379Z,21.3
2017-03-21T11:08:51.689Z,21.33
2017-03-21T11:10:02.243Z,21.38
2017-03-21T11:11:12.289Z,21.32
2017-03-21T11:12:22.611Z,21.37
2017-03-21T11:13:32.604Z,21.3
2017-03-21T11:14:42.626Z,21.29
2017-03-21T11:15:53.251Z,21.35
2017-03-21T11:17:03.264Z,21.32
2017-03-21T11:18:13.605Z,21.3
2017-03-21T11:19:24.346Z,21.28
2017-03-21T11:20:34.669Z,21.25
2017-03-21T11:21:45.014Z,21.35
2017-03-21T11:22:55.122Z,21.33
2017-03-21T11:24:05.449Z,21.32
2017-03-21T11:25:15.491Z,21.4
2017-03-21T11:26:25.821Z,21.47
2017-03-21T11:27:36.065Z,21.48
2017-03-21T11:28:46.387Z,21.5
2017-03-21T11:29:56.385Z,21.51
2017-03-21T11:31:06.386Z,21.43
2017-03-21T11:32:16.092Z,21.45
2017-03-21T11:33:26.710Z,21.44
2017-03-21T11:34:37.031Z,21.58
2017-03-21T11:35:47.042Z,21.5
2017-03-21T11:36:57.359Z,21.48
2017-03-21T11:38:07.657Z,21.6
2017-03-21T11:39:18.233Z,21.47
2017-03-21T11:40:28.546Z,21.59
2017-03-21T11:41:38.855Z,21.54
2017-03-21T11:42:49.170Z,21.56
2017-03-21T11:43:59.480Z,21.58
2017-03-21T11:45:10.108Z,21.56
2017-03-21T11:46:20.138Z,21.53
2017-03-21T11:47:30.480Z,21.56
2017-03-21T11:48:40.816Z,21.47
2017-03-21T11:49:50.821Z,21.51
2017-03-21T11:51:01.446Z,21.44
2017-03-21T11:52:11.448Z,21.43
2017-03-21T11:53:21.466Z,21.43
2017-03-21T11:54:31.785Z,21.43
2017-03-21T11:55:42.134Z,21.43
2017-03-21T11:56:52.712Z,21.43
2017-03-21T11:58:03.027Z,21.43
2017-03-21T11:59:13.336Z,21.45
2017-03-21T12:00:23.653Z,21.51
2017-03-21T12:01:33.979Z,21.5
2017-03-21T12:02:44.559Z,21.47
2017-03-21T12:03:54.892Z,21.54
2017-03-21T12:05:04.898Z,21.47
2017-03-21T12:06:15.215Z,21.56
2017-03-21T12:07:25.541Z,21.54
2017-03-21T12:08:36.128Z,21.51
2017-03-21T12:09:46.111Z,21.54
2017-03-21T12:10:56.102Z,21.59
2017-03-21T12:12:06.412Z,21.58
2017-03-21T12:13:16.727Z,21.56
2017-03-21T12:14:26.971Z,21.58
2017-03-21T12:15:37.293Z,21.68
2017-03-21T12:16:47.586Z,21.59
2017-03-21T12:17:57.896Z,21.58
2017-03-21T12:19:07.909Z,21.56
2017-03-21T12:20:18.495Z,21.6
2017-03-21T12:21:28.789Z,21.65
2017-03-21T12:22:39.119Z,21.51
2017-03-21T12:23:49.129Z,21.54
2017-03-21T12:24:59.429Z,21.45
2017-03-21T12:26:09.986Z,21.43
2017-03-21T12:27:20.299Z,21.44
2017-03-21T12:28:30.615Z,21.59
2017-03-21T12:29:40.936Z,21.5
2017-03-21T12:30:51.250Z,21.48
2017-03-21T12:32:01.809Z,21.51
2017-03-21T12:33:11.843Z,21.54
2017-03-21T12:34:22.168Z,21.44
2017-03-21T12:35:32.556Z,21.44
2017-03-21T12:36:42.981Z,21.51
2017-03-21T12:37:53.831Z,21.47
2017-03-21T12:39:04.173Z,21.41
2017-03-21T12:40:14.545Z,21.43
2017-03-21T12:41:24.892Z,21.41
2017-03-21T12:42:35.200Z,21.51
2017-03-21T12:43:45.868Z,21.47
2017-03-21T12:44:56.216Z,21.45
2017-03-21T12:46:06.530Z,21.47
2017-03-21T12:47:16.837Z,21.47
2017-03-21T12:48:26.530Z,21.5
2017-03-21T12:49:36.812Z,21.53
2017-03-21T12:50:47.157Z,21.53
2017-03-21T12:51:57.341Z,21.5
2017-03-21T12:53:07.660Z,21.48
2017-03-21T12:54:17.971Z,21.48
2017-03-21T12:55:28.556Z,21.48
2017-03-21T12:56:38.873Z,21.43
2017-03-21T12:57:49.204Z,21.54
2017-03-21T12:58:59.577Z,21.56
2017-03-21T13:00:09.580Z,21.54
2017-03-21T13:01:20.140Z,21.47
2017-03-21T13:02:30.164Z,21.54
2017-03-21T13:03:40.485Z,21.58
2017-03-21T13:04:50.804Z,21.56
2017-03-21T13:06:01.157Z,21.48
2017-03-21T13:07:11.711Z,21.56
2017-03-21T13:08:22.017Z,21.54
2017-03-21T13:09:32.034Z,21.58
2017-03-21T13:10:42.341Z,21.53
2017-03-21T13:11:52.661Z,21.56
2017-03-21T13:13:03.234Z,21.56
2017-03-21T13:14:13.563Z,21.5
2017-03-21T13:15:23.576Z,21.59
2017-03-21T13:16:33.898Z,21.56
2017-03-21T13:17:43.911Z,21.54
2017-03-21T13:18:54.213Z,21.5
2017-03-21T13:20:04.559Z,21.48
2017-03-21T13:21:14.565Z,21.43
2017-03-21T13:22:24.872Z,21.45
2017-03-21T13:23:35.226Z,21.45
2017-03-21T13:24:45.804Z,21.6
2017-03-21T13:25:55.810Z,21.44
2017-03-21T13:27:06.126Z,21.51
2017-03-21T13:28:16.440Z,21.47
2017-03-21T13:29:26.754Z,21.51
2017-03-21T13:30:37.301Z,21.43
2017-03-21T13:31:47.333Z,21.44
2017-03-21T13:32:57.653Z,21.48
2017-03-21T13:34:07.682Z,21.45
2017-03-21T13:35:18.018Z,21.44
2017-03-21T13:36:28.422Z,21.4
2017-03-21T13:37:38.733Z,21.45
2017-03-21T13:38:48.419Z,21.5
2017-03-21T13:39:58.423Z,21.45
2017-03-21T13:41:08.441Z,21.38
2017-03-21T13:42:19.036Z,21.4
2017-03-21T13:43:29.354Z,21.4
2017-03-21T13:44:39.679Z,21.45
2017-03-21T13:45:49.691Z,21.43
2017-03-21T13:46:59.720Z,21.43
2017-03-21T13:48:10.266Z,21.44
2017-03-21T13:49:19.339Z,21.48
2017-03-21T13:50:29.696Z,21.58
2017-03-21T13:51:40.008Z,21.45
2017-03-21T13:52:50.323Z,21.48
2017-03-21T13:54:00.792Z,21.45
2017-03-21T13:55:11.147Z,21.43
2017-03-21T13:56:21.480Z,21.41
2017-03-21T13:57:31.963Z,21.5
2017-03-21T13:58:41.963Z,21.44
2017-03-21T13:59:52.208Z,21.56
2017-03-21T14:01:02.543Z,21.56
2017-03-21T14:02:12.552Z,21.58
2017-03-21T14:03:22.617Z,21.45
2017-03-21T14:04:33.137Z,21.54
2017-03-21T14:05:43.722Z,21.56
2017-03-21T14:06:54.066Z,21.51
2017-03-21T14:08:04.370Z,21.45
2017-03-21T14:09:14.369Z,21.47
2017-03-21T14:10:24.682Z,21.45
2017-03-21T14:11:34.976Z,21.6
2017-03-21T14:12:45.308Z,21.43
2017-03-21T14:13:55.635Z,21.47
2017-03-21T14:15:05.956Z,21.45
2017-03-21T14:16:16.293Z,21.59
2017-03-21T14:17:26.914Z,21.45
2017-03-21T14:18:37.235Z,21.48
2017-03-21T14:19:47.549Z,21.54
2017-03-21T14:20:57.856Z,21.56
2017-03-21T14:22:08.197Z,21.51
2017-03-21T14:23:18.458Z,21.45
2017-03-21T14:24:28.776Z,21.45
2017-03-21T14:25:38.798Z,21.45
2017-03-21T14:26:49.126Z,21.45
2017-03-21T14:27:59.448Z,21.45
2017-03-21T14:29:10.262Z,21.41
2017-03-21T14:30:20.629Z,21.43
2017-03-21T14:31:30.947Z,21.44
2017-03-21T14:32:41.287Z,21.47
2017-03-21T14:33:51.606Z,21.43
2017-03-21T14:35:02.171Z,21.47
2017-03-21T14:36:12.497Z,21.5
2017-03-21T14:37:22.508Z,21.5
2017-03-21T14:38:32.885Z,21.5
2017-03-21T14:39:43.204Z,21.43
2017-03-21T14:40:53.772Z,21.51
2017-03-21T14:42:04.094Z,21.45
2017-03-21T14:43:14.100Z,21.44
2017-03-21T14:44:23.773Z,21.45
2017-03-21T14:45:34.081Z,21.38
2017-03-21T14:46:44.003Z,21.47
2017-03-21T14:47:54.317Z,21.43
2017-03-21T14:49:04.656Z,21.44
2017-03-21T14:50:14.447Z,21.4
2017-03-21T14:51:24.756Z,21.48
2017-03-21T14:52:35.055Z,21.45
2017-03-21T14:53:45.386Z,21.41
2017-03-21T14:54:55.724Z,21.44
2017-03-21T14:56:06.036Z,21.38
2017-03-21T14:57:16.373Z,21.43
2017-03-21T14:58:26.943Z,21.43
2017-03-21T14:59:37.256Z,21.4
2017-03-21T15:00:47.581Z,21.41
2017-03-21T15:01:57.601Z,21.44
2017-03-21T15:03:07.609Z,21.44
2017-03-21T15:04:17.921Z,21.41
2017-03-21T15:05:28.238Z,21.38
2017-03-21T15:06:38.612Z,21.45
2017-03-21T15:07:48.301Z,21.4